Time;durP1;ratioP1;P1;durP2;ratioP2;P2;SDS_P1;SDS_P2;PMS_P1;PMS_P2;Temp;Humidity;BMP_temperature;BMP_pressure;BME280_temperature;BME280_humidity;BME280_pressure;Samples;Min_cycle;Max_cycle;Signal;HPM_P1;HPM_P2
2021/05/17 00:00:24;;;;;;;;;;;;;;;9.26;94.40;94876.78;1276791;23;19940;-64
2021/05/17 00:00:54;;;;;;;;;;;;;;;9.29;94.02;94875.41;1271141;23;19916;-63
2021/05/17 00:01:26;;;;;;;;;;;;;;;9.29;94.11;94873.53;1276595;23;19935;-63
2021/05/17 00:01:56;;;;;;;;;;;;;;;9.24;94.07;94870.94;1277167;23;20298;-62
2021/05/17 00:02:26;;;;;;;;;;;;;;;9.22;93.83;94870.44;1283019;23;19884;-63
2021/05/17 00:02:58;;;;;;;;;;;;;;;9.26;93.80;94860.78;1281344;23;19896;-62
2021/05/17 00:03:28;;;;;;;;;;;;;;;9.24;93.93;94868.28;1280691;23;19908;-63
2021/05/17 00:04:00;;;;;;;;;;;;;;;9.26;94.15;94865.31;1282836;23;19901;-63
2021/05/17 00:04:32;;;;;;;;;;;;;;;9.22;94.59;94867.78;1283201;23;19907;-63
2021/05/17 00:05:03;;;;;;;;;;;;;;;9.27;94.00;94866.94;1280466;23;19900;-62
2021/05/17 00:05:33;;;;;;;;;;;;;;;9.24;94.36;94870.16;1280870;23;20003;-63
2021/05/17 00:06:04;;;;;;;;;;;;;;;9.22;94.30;94872.31;1281214;23;19900;-63
2021/05/17 00:06:34;;;;;;;;;;;;;;;9.20;94.35;94863.81;1281042;23;19900;-63
2021/05/17 00:07:05;;;;;;;;;;;;;;;9.10;95.04;94881.53;1281138;23;19916;-63
2021/05/17 00:07:36;;;;;;;;;;;;;;;9.13;95.01;94866.06;1281358;23;19911;-63
2021/05/17 00:08:07;;;;;;;;;;;;;;;9.16;94.99;94868.91;1279106;23;19908;-66
2021/05/17 00:08:37;;;;;;;;;;;;;;;9.21;94.94;94873.38;1279214;23;19908;-63
2021/05/17 00:09:08;;;;;;;;;;;;;;;9.21;94.57;94870.72;1279170;23;19912;-63
2021/05/17 00:09:38;;;;;;;;;;;;;;;9.18;93.98;94872.09;1279082;23;19907;-63
2021/05/17 00:10:09;;;;;;;;;;;;;;;9.25;94.22;94880.53;1278537;23;19908;-63
2021/05/17 00:10:39;;;;;;;;;;;;;;;9.25;94.10;94877.84;1278778;23;19900;-63
2021/05/17 00:11:10;;;;;;;;;;;;;;;9.25;93.82;94879.72;1278486;23;19908;-63
2021/05/17 00:11:40;;;;;;;;;;;;;;;9.18;94.00;94877.44;1278663;23;20046;-62
2021/05/17 00:12:10;;;;;;;;;;;;;;;9.18;94.25;94871.31;1278979;23;19935;-62
2021/05/17 00:12:41;;;;;;;;;;;;;;;9.20;94.39;94877.94;1278951;23;19901;-62
2021/05/17 00:13:11;;;;;;;;;;;;;;;9.24;94.35;94881.59;1279052;23;19908;-63
2021/05/17 00:13:41;;;;;;;;;;;;;;;9.24;94.25;94878.16;1279039;23;19904;-62
2021/05/17 00:14:11;;;;;;;;;;;;;;;9.22;93.94;94880.31;1278599;23;19908;-62
2021/05/17 00:14:42;;;;;;;;;;;;;;;9.24;93.77;94878.16;1278647;23;19904;-62
2021/05/17 00:15:13;;;;;;;;;;;;;;;9.19;93.45;94881.69;1278504;23;19904;-63
2021/05/17 00:15:43;;;;;;;;;;;;;;;9.20;94.09;94887.81;1278561;23;19916;-62
2021/05/17 00:16:14;;;;;;;;;;;;;;;9.22;94.09;94877.66;1278853;23;19911;-63
2021/05/17 00:16:44;;;;;;;;;;;;;;;9.26;93.97;94887.44;1278994;23;19904;-62
2021/05/17 00:17:14;;;;;;;;;;;;;;;9.27;93.89;94882.91;1278740;23;19904;-62
2021/05/17 00:17:46;;;;;;;;;;;;;;;9.28;94.01;94890.63;1278685;23;20269;-63
2021/05/17 00:18:16;;;;;;;;;;;;;;;9.28;93.46;94895.16;1278630;23;19915;-62
2021/05/17 00:18:46;;;;;;;;;;;;;;;9.25;93.00;94895.72;1278825;23;19920;-63
2021/05/17 00:19:17;;;;;;;;;;;;;;;9.27;92.54;94891.72;1278558;23;20567;-63
2021/05/17 00:19:47;;;;;;;;;;;;;;;9.29;92.82;94894.06;1278721;23;19916;-63
2021/05/17 00:20:17;;;;;;;;;;;;;;;9.30;93.32;94888.44;1278690;23;20606;-62
2021/05/17 00:20:48;;;;;;;;;;;;;;;9.29;93.11;94888.75;1278584;23;19916;-62
2021/05/17 00:21:18;;;;;;;;;;;;;;;9.27;92.92;94894.38;1279033;23;19914;-63
2021/05/17 00:21:48;;;;;;;;;;;;;;;9.30;93.35;94890.31;1272598;23;19939;-63
2021/05/17 00:22:19;;;;;;;;;;;;;;;9.28;92.88;94900.50;1272563;23;19911;-63
2021/05/17 00:22:49;;;;;;;;;;;;;;;9.25;92.84;94891.19;1272408;23;19904;-63
2021/05/17 00:23:19;;;;;;;;;;;;;;;9.26;92.68;94891.97;1272007;23;19912;-63
2021/05/17 00:23:50;;;;;;;;;;;;;;;9.24;93.32;94891.47;1280507;23;19904;-64
2021/05/17 00:24:21;;;;;;;;;;;;;;;9.23;93.09;94895.25;1281147;23;19904;-64
2021/05/17 00:24:51;;;;;;;;;;;;;;;9.20;92.79;94896.59;1280203;23;19904;-63
2021/05/17 00:25:25;;;;;;;;;;;;;;;9.18;92.80;94897.97;1279417;23;19911;-63
2021/05/17 00:25:55;;;;;;;;;;;;;;;9.18;92.68;94888.09;1279134;23;19943;-63
2021/05/17 00:26:25;;;;;;;;;;;;;;;9.18;92.96;94885.44;1278725;23;19910;-63
2021/05/17 00:26:56;;;;;;;;;;;;;;;9.21;92.78;94895.50;1278750;23;19959;-63
2021/05/17 00:27:26;;;;;;;;;;;;;;;9.21;92.66;94898.16;1278695;23;19995;-63
2021/05/17 00:27:57;;;;;;;;;;;;;;;9.22;92.83;94886.44;1279102;23;19911;-63
2021/05/17 00:28:27;;;;;;;;;;;;;;;9.24;92.91;94897.59;1278952;23;19956;-63
2021/05/17 00:28:57;;;;;;;;;;;;;;;9.26;92.82;94895.44;1279083;23;19908;-63
2021/05/17 00:29:28;;;;;;;;;;;;;;;9.23;93.23;94895.25;1279040;23;20237;-63
2021/05/17 00:29:58;;;;;;;;;;;;;;;9.26;93.22;94897.31;1278628;23;20354;-63
2021/05/17 00:30:29;;;;;;;;;;;;;;;9.23;93.00;94887.25;1278554;23;19912;-63
2021/05/17 00:30:59;;;;;;;;;;;;;;;9.22;92.86;94894.44;1278587;23;19908;-63
2021/05/17 00:31:30;;;;;;;;;;;;;;;9.22;93.19;94889.13;1278507;23;19911;-63
2021/05/17 00:32:00;;;;;;;;;;;;;;;9.22;93.15;94891.00;1278652;23;19900;-63
2021/05/17 00:32:30;;;;;;;;;;;;;;;9.24;93.09;94894.94;1278962;23;19974;-65
2021/05/17 00:33:01;;;;;;;;;;;;;;;9.22;93.04;94889.13;1278998;23;19975;-63
2021/05/17 00:33:32;;;;;;;;;;;;;;;9.25;92.95;94885.06;1278991;23;20332;-63
2021/05/17 00:34:02;;;;;;;;;;;;;;;9.26;92.81;94884.78;1278901;23;19975;-63
2021/05/17 00:34:33;;;;;;;;;;;;;;;9.21;92.91;94884.03;1278608;23;19915;-63
2021/05/17 00:35:03;;;;;;;;;;;;;;;9.18;93.01;94892.63;1278713;23;19904;-63
2021/05/17 00:35:34;;;;;;;;;;;;;;;9.20;93.42;94885.91;1278699;23;19904;-63
2021/05/17 00:36:04;;;;;;;;;;;;;;;9.18;93.30;94885.44;1278610;23;19912;-63
2021/05/17 00:36:35;;;;;;;;;;;;;;;9.16;93.30;94890.25;1278686;23;20238;-64
2021/05/17 00:37:05;;;;;;;;;;;;;;;9.14;93.44;94887.09;1278460;23;19912;-63
2021/05/17 00:37:35;;;;;;;;;;;;;;;9.15;93.43;94877.22;1278476;23;19908;-62
2021/05/17 00:38:05;;;;;;;;;;;;;;;9.16;93.40;94881.44;1278556;23;19912;-62
2021/05/17 00:38:36;;;;;;;;;;;;;;;9.15;93.41;94875.34;1279039;23;20006;-62
2021/05/17 00:39:09;;;;;;;;;;;;;;;9.10;93.77;94884.19;1279113;23;19915;-62
2021/05/17 00:39:41;;;;;;;;;;;;;;;9.11;93.71;94871.69;1279184;23;20013;-64
2021/05/17 00:40:11;;;;;;;;;;;;;;;9.10;93.82;94872.72;1279139;23;20329;-62
2021/05/17 00:40:41;;;;;;;;;;;;;;;9.06;94.28;94877.06;1279273;23;19912;-63
2021/05/17 00:41:12;;;;;;;;;;;;;;;9.11;94.16;94874.34;1279324;23;20393;-63
2021/05/17 00:41:42;;;;;;;;;;;;;;;9.09;93.85;94887.16;1279030;23;20306;-63
2021/05/17 00:42:12;;;;;;;;;;;;;;;9.08;93.98;94877.56;1278970;23;19981;-63
2021/05/17 00:42:43;;;;;;;;;;;;;;;9.09;94.19;94871.16;1278903;23;20238;-63
2021/05/17 00:43:13;;;;;;;;;;;;;;;9.09;94.13;94869.28;1278961;23;19904;-63
2021/05/17 00:43:43;;;;;;;;;;;;;;;9.11;94.10;94875.13;1279051;23;19904;-63
2021/05/17 00:44:14;;;;;;;;;;;;;;;9.13;94.45;94869.50;1278847;23;19904;-63
2021/05/17 00:44:44;;;;;;;;;;;;;;;9.13;94.46;94872.16;1279844;23;19904;-63
2021/05/17 00:45:15;;;;;;;;;;;;;;;9.10;94.16;94867.41;1274618;23;19901;-63
2021/05/17 00:45:45;;;;;;;;;;;;;;;9.13;94.08;94866.06;1273500;23;19904;-63
2021/05/17 00:46:15;;;;;;;;;;;;;;;9.11;94.02;94869.00;1278910;23;19991;-63
2021/05/17 00:46:46;;;;;;;;;;;;;;;9.06;94.20;94867.22;1279028;23;19979;-63
2021/05/17 00:47:16;;;;;;;;;;;;;;;9.04;94.29;94864.03;1279195;23;19914;-63
2021/05/17 00:47:47;;;;;;;;;;;;;;;9.05;94.72;94862.13;1279356;23;19919;-63
2021/05/17 00:48:18;;;;;;;;;;;;;;;9.03;94.44;94873.09;1279253;23;19904;-63
2021/05/17 00:48:48;;;;;;;;;;;;;;;9.02;94.57;94868.06;1280600;23;19904;-63
2021/05/17 00:49:18;;;;;;;;;;;;;;;9.04;94.79;94869.34;1280995;23;19904;-63
2021/05/17 00:49:49;;;;;;;;;;;;;;;9.04;94.59;94873.88;1280990;23;19904;-63
2021/05/17 00:50:20;;;;;;;;;;;;;;;9.04;94.51;94865.91;1280777;23;19900;-63
2021/05/17 00:50:51;;;;;;;;;;;;;;;9.01;94.86;94875.28;1281316;23;19971;-64
2021/05/17 00:51:21;;;;;;;;;;;;;;;9.00;94.55;94873.66;1280913;23;19911;-64
2021/05/17 00:51:51;;;;;;;;;;;;;;;9.00;94.88;94873.66;1281634;23;19908;-63
2021/05/17 00:52:22;;;;;;;;;;;;;;;9.01;95.18;94871.81;1281339;23;19933;-64
2021/05/17 00:52:52;;;;;;;;;;;;;;;9.05;94.99;94875.47;1281431;23;19920;-62
2021/05/17 00:53:22;;;;;;;;;;;;;;;9.06;95.07;94879.75;1281324;23;19904;-62
2021/05/17 00:53:53;;;;;;;;;;;;;;;9.02;94.94;94873.41;1281361;23;19947;-62
2021/05/17 00:54:23;;;;;;;;;;;;;;;8.99;95.22;94874.75;1275104;23;19988;-62
2021/05/17 00:54:53;;;;;;;;;;;;;;;8.98;95.28;94880.38;1281252;23;19919;-62
2021/05/17 00:55:24;;;;;;;;;;;;;;;9.04;95.16;94879.22;1281229;23;19900;-62
2021/05/17 00:55:54;;;;;;;;;;;;;;;9.00;94.86;94873.66;1281581;23;19904;-62
2021/05/17 00:56:25;;;;;;;;;;;;;;;9.00;95.44;94879.00;1281611;23;19955;-62
2021/05/17 00:56:55;;;;;;;;;;;;;;;9.01;95.53;94880.59;1281460;23;20266;-63
2021/05/17 00:57:25;;;;;;;;;;;;;;;9.04;95.02;94877.34;1281621;23;20299;-63
2021/05/17 00:57:56;;;;;;;;;;;;;;;9.04;95.47;94880.00;1281606;23;19904;-62
2021/05/17 00:58:26;;;;;;;;;;;;;;;9.00;95.34;94886.19;1281443;23;19904;-62
2021/05/17 00:58:56;;;;;;;;;;;;;;;8.99;95.14;94877.41;1281555;23;19924;-62
2021/05/17 00:59:26;;;;;;;;;;;;;;;8.98;95.71;94880.38;1281413;23;20252;-62
2021/05/17 00:59:57;;;;;;;;;;;;;;;9.04;95.26;94876.56;1281727;23;20011;-62
2021/05/17 01:00:29;;;;;;;;;;;;;;;9.03;95.11;94883.75;1281544;23;19911;-62
2021/05/17 01:01:00;;;;;;;;;;;;;;;9.02;95.46;94884.06;1281956;23;19912;-62
2021/05/17 01:01:30;;;;;;;;;;;;;;;9.04;95.40;94889.88;1281852;23;19916;-63
2021/05/17 01:02:01;;;;;;;;;;;;;;;9.05;95.34;94883.47;1282218;23;19926;-62
2021/05/17 01:02:31;;;;;;;;;;;;;;;9.08;95.20;94890.91;1281222;23;19908;-62
2021/05/17 01:03:01;;;;;;;;;;;;;;;9.09;95.34;94892.47;1280310;23;19905;-62
2021/05/17 01:03:32;;;;;;;;;;;;;;;9.05;94.93;94884.25;1279164;23;19988;-62
2021/05/17 01:04:02;;;;;;;;;;;;;;;9.05;95.04;94883.47;1272822;23;19971;-62
2021/05/17 01:04:33;;;;;;;;;;;;;;;9.04;95.08;94897.88;1273041;23;19912;-62
2021/05/17 01:05:04;;;;;;;;;;;;;;;9.02;95.37;94890.16;1278920;23;19908;-62
2021/05/17 01:05:34;;;;;;;;;;;;;;;9.04;95.59;94893.34;1279054;23;19911;-62
2021/05/17 01:06:04;;;;;;;;;;;;;;;9.06;95.48;94893.06;1278865;23;19954;-62
2021/05/17 01:06:35;;;;;;;;;;;;;;;9.09;95.16;94892.47;1278871;23;19979;-62
2021/05/17 01:07:05;;;;;;;;;;;;;;;9.04;95.41;94893.34;1278706;23;19904;-62
2021/05/17 01:07:35;;;;;;;;;;;;;;;9.05;95.65;94902.91;1278951;23;20474;-62
2021/05/17 01:08:07;;;;;;;;;;;;;;;9.06;95.87;94898.41;1279338;23;19904;-62
2021/05/17 01:08:38;;;;;;;;;;;;;;;9.04;95.83;94896.00;1279032;23;19924;-62
2021/05/17 01:09:08;;;;;;;;;;;;;;;9.06;95.89;94904.53;1279026;23;19904;-62
2021/05/17 01:09:38;;;;;;;;;;;;;;;9.03;95.71;94894.41;1279025;23;19904;-62
2021/05/17 01:10:09;;;;;;;;;;;;;;;9.06;95.76;94895.72;1278837;23;19904;-62
2021/05/17 01:10:42;;;;;;;;;;;;;;;9.03;96.05;94893.63;1278902;23;19983;-63
2021/05/17 01:11:14;;;;;;;;;;;;;;;8.99;95.55;94892.59;1278664;23;19908;-62
2021/05/17 01:11:44;;;;;;;;;;;;;;;9.03;95.65;94899.75;1272603;23;19987;-62
2021/05/17 01:12:15;;;;;;;;;;;;;;;9.04;95.77;94901.31;1272793;23;19916;-62
2021/05/17 01:12:46;;;;;;;;;;;;;;;9.03;95.89;94906.94;1273019;23;19908;-62
2021/05/17 01:13:16;;;;;;;;;;;;;;;8.95;95.86;94902.25;1278945;23;19979;-62
2021/05/17 01:13:46;;;;;;;;;;;;;;;8.95;95.97;94908.38;1278868;23;19939;-62
2021/05/17 01:14:17;;;;;;;;;;;;;;;8.94;95.95;94895.34;1278716;23;19908;-62
2021/05/17 01:14:47;;;;;;;;;;;;;;;8.94;95.79;94904.13;1278811;23;19983;-63
2021/05/17 01:15:18;;;;;;;;;;;;;;;8.93;96.16;94899.88;1278844;23;19904;-63
2021/05/17 01:15:48;;;;;;;;;;;;;;;8.91;96.17;94914.59;1278855;23;20413;-63
2021/05/17 01:16:18;;;;;;;;;;;;;;;8.88;96.43;94907.13;1278859;23;19908;-63
2021/05/17 01:16:49;;;;;;;;;;;;;;;8.87;96.45;94905.56;1272632;23;19908;-63
2021/05/17 01:17:19;;;;;;;;;;;;;;;8.88;96.37;94905.25;1278915;23;19943;-63
2021/05/17 01:17:49;;;;;;;;;;;;;;;8.85;96.46;94903.97;1272750;23;19908;-63
2021/05/17 01:18:19;;;;;;;;;;;;;;;8.88;96.41;94913.25;1272708;23;19942;-63
2021/05/17 01:18:52;;;;;;;;;;;;;;;8.90;96.30;94908.44;1272607;23;19943;-63
2021/05/17 01:19:46;;;;;;;;;;;;;;;8.93;96.67;94907.88;1272994;23;19987;-63
2021/05/17 01:20:17;;;;;;;;;;;;;;;8.94;96.57;94914.78;1272638;23;19963;-62
2021/05/17 01:20:49;;;;;;;;;;;;;;;8.92;96.82;94908.16;1272082;23;19956;-63
2021/05/17 01:21:19;;;;;;;;;;;;;;;8.89;96.49;94914.84;1272484;23;19905;-63
2021/05/17 01:21:53;;;;;;;;;;;;;;;8.85;96.31;94906.66;1273689;23;19908;-63
2021/05/17 01:22:25;;;;;;;;;;;;;;;8.88;96.42;94912.47;1273853;23;20298;-63
2021/05/17 01:23:56;;;;;;;;;;;;;;;8.90;96.41;94913.75;1273012;23;19915;-63
2021/05/17 01:24:26;;;;;;;;;;;;;;;8.93;96.54;94915.88;1279044;23;19974;-63
2021/05/17 01:24:56;;;;;;;;;;;;;;;8.95;96.57;94908.38;1285080;23;20326;-63
2021/05/17 01:25:27;;;;;;;;;;;;;;;8.97;96.38;94916.09;1278653;23;20301;-62
2021/05/17 01:25:58;;;;;;;;;;;;;;;8.97;96.31;94919.56;1278874;23;20257;-63
2021/05/17 01:26:29;;;;;;;;;;;;;;;8.95;96.32;94915.56;1278852;23;19983;-62
2021/05/17 01:26:59;;;;;;;;;;;;;;;8.96;96.49;94914.50;1278980;23;20240;-63
2021/05/17 01:27:30;;;;;;;;;;;;;;;8.96;96.59;94915.31;1278652;23;19912;-62
2021/05/17 01:28:00;;;;;;;;;;;;;;;9.01;96.27;94925.13;1278827;23;19904;-63
2021/05/17 01:28:31;;;;;;;;;;;;;;;8.94;96.69;94917.44;1278882;23;19939;-63
2021/05/17 01:29:03;;;;;;;;;;;;;;;8.92;96.61;94914.28;1278757;23;19911;-63
2021/05/17 01:29:33;;;;;;;;;;;;;;;8.95;96.59;94913.69;1278746;23;19965;-62
2021/05/17 01:30:04;;;;;;;;;;;;;;;8.92;96.64;94911.63;1272615;23;20362;-63
2021/05/17 01:30:34;;;;;;;;;;;;;;;8.94;96.69;94919.31;1266873;23;19905;-63
2021/05/17 01:31:05;;;;;;;;;;;;;;;8.93;96.54;94915.06;1272631;23;19932;-63
2021/05/17 01:31:35;;;;;;;;;;;;;;;8.89;96.91;94919.38;1266758;23;20235;-63
2021/05/17 01:32:07;;;;;;;;;;;;;;;8.85;97.22;94919.16;1266640;23;19955;-62
2021/05/17 01:32:37;;;;;;;;;;;;;;;8.89;97.26;94922.03;1272630;23;20054;-63
2021/05/17 01:33:07;;;;;;;;;;;;;;;8.86;96.92;94904.78;1266651;23;19944;-63
2021/05/17 01:33:41;;;;;;;;;;;;;;;8.87;97.00;94916.22;1266559;23;19905;-62
2021/05/17 01:34:14;;;;;;;;;;;;;;;8.88;97.21;94923.13;1266405;23;19911;-63
2021/05/17 01:34:44;;;;;;;;;;;;;;;8.89;96.99;94914.06;1269140;23;19909;-62
2021/05/17 01:35:15;;;;;;;;;;;;;;;8.85;96.95;94909.31;1273929;23;19908;-62
2021/05/17 01:35:48;;;;;;;;;;;;;;;8.88;96.80;94904.47;1278662;23;20313;-63
2021/05/17 01:36:19;;;;;;;;;;;;;;;8.90;96.42;94915.63;1278674;23;19908;-62
2021/05/17 01:36:49;;;;;;;;;;;;;;;8.90;96.72;94907.63;1278818;23;20328;-63
2021/05/17 01:37:19;;;;;;;;;;;;;;;8.90;96.70;94907.63;1279072;23;19908;-62
2021/05/17 01:37:51;;;;;;;;;;;;;;;8.94;96.53;94912.13;1278699;23;19983;-62
2021/05/17 01:38:21;;;;;;;;;;;;;;;8.96;96.63;94914.50;1278836;23;19942;-63
2021/05/17 01:38:52;;;;;;;;;;;;;;;8.97;96.40;94911.56;1278704;23;20369;-63
2021/05/17 01:39:23;;;;;;;;;;;;;;;8.94;96.70;94912.13;1279096;23;19932;-62
2021/05/17 01:39:53;;;;;;;;;;;;;;;8.93;96.63;94912.41;1284997;23;19910;-63
2021/05/17 01:40:24;;;;;;;;;;;;;;;8.96;96.44;94911.84;1278736;23;20412;-63
2021/05/17 01:40:54;;;;;;;;;;;;;;;8.93;96.69;94915.88;1278873;23;20027;-63
2021/05/17 01:41:25;;;;;;;;;;;;;;;8.92;96.66;94914.28;1272481;23;19909;-63
2021/05/17 01:41:55;;;;;;;;;;;;;;;8.94;96.81;94906.00;1272819;23;19911;-63
2021/05/17 01:42:25;;;;;;;;;;;;;;;8.94;96.55;94906.78;1278793;23;19967;-62
2021/05/17 01:42:55;;;;;;;;;;;;;;;8.94;96.70;94912.13;1272765;23;19905;-63
2021/05/17 01:43:26;;;;;;;;;;;;;;;8.93;96.40;94913.19;1278662;23;20305;-63
2021/05/17 01:43:58;;;;;;;;;;;;;;;8.89;96.69;94916.72;1272697;23;19909;-64
2021/05/17 01:44:28;;;;;;;;;;;;;;;8.89;96.88;94909.50;1272937;23;19931;-62
2021/05/17 01:44:58;;;;;;;;;;;;;;;8.86;96.65;94912.75;1278830;23;20003;-62
2021/05/17 01:45:29;;;;;;;;;;;;;;;8.87;96.81;94908.22;1278677;23;20280;-63
2021/05/17 01:46:01;;;;;;;;;;;;;;;8.84;97.09;94913.03;1278562;23;19904;-63
2021/05/17 01:46:31;;;;;;;;;;;;;;;8.82;97.00;94909.88;1278759;23;19951;-63
2021/05/17 01:47:01;;;;;;;;;;;;;;;8.82;97.02;94909.88;1278844;23;20332;-62
2021/05/17 01:47:32;;;;;;;;;;;;;;;8.80;97.07;94911.22;1278578;23;19939;-62
2021/05/17 01:48:02;;;;;;;;;;;;;;;8.82;96.99;94907.19;1278831;23;19938;-63
2021/05/17 01:48:32;;;;;;;;;;;;;;;8.84;97.25;94904.25;1278776;23;19912;-63
2021/05/17 01:49:03;;;;;;;;;;;;;;;8.83;97.03;94911.44;1278792;23;20345;-63
2021/05/17 01:49:33;;;;;;;;;;;;;;;8.81;97.14;94908.28;1278786;23;20034;-63
2021/05/17 01:50:04;;;;;;;;;;;;;;;8.87;97.21;94910.88;1272665;23;19905;-62
2021/05/17 01:50:34;;;;;;;;;;;;;;;8.84;97.16;94907.69;1272558;23;20033;-62
2021/05/17 01:51:11;;;;;;;;;;;;;;;8.83;97.29;94914.13;1278488;23;19905;-62
2021/05/17 01:51:44;;;;;;;;;;;;;;;8.90;96.80;94915.63;1266563;23;19913;-62
2021/05/17 01:52:15;;;;;;;;;;;;;;;8.91;96.73;94910.03;1266523;23;19999;-62
2021/05/17 01:52:45;;;;;;;;;;;;;;;8.91;96.69;94912.72;1268633;23;19970;-62
2021/05/17 01:53:16;;;;;;;;;;;;;;;8.93;96.56;94909.75;1272582;23;19959;-62
2021/05/17 01:53:46;;;;;;;;;;;;;;;8.95;96.62;94908.38;1272625;23;20385;-62
2021/05/17 01:54:17;;;;;;;;;;;;;;;8.97;96.65;94908.88;1272518;23;19909;-63
2021/05/17 01:54:48;;;;;;;;;;;;;;;8.99;96.41;94911.25;1272608;23;19911;-63
2021/05/17 01:55:18;;;;;;;;;;;;;;;9.02;96.42;94916.81;1272630;23;19911;-63
2021/05/17 01:55:49;;;;;;;;;;;;;;;9.04;96.16;94914.66;1272581;23;19904;-63
2021/05/17 01:56:19;;;;;;;;;;;;;;;9.09;96.06;94916.47;1272494;23;19904;-63
2021/05/17 01:56:49;;;;;;;;;;;;;;;9.07;96.07;94905.31;1272626;23;20278;-63
2021/05/17 01:57:20;;;;;;;;;;;;;;;9.06;96.00;94914.38;1266373;23;20422;-63
2021/05/17 01:58:09;;;;;;;;;;;;;;;9.05;95.72;94918.09;1267785;23;19912;-63
2021/05/17 01:58:39;;;;;;;;;;;;;;;9.10;95.34;94910.06;1267986;23;19952;-63
2021/05/17 01:59:10;;;;;;;;;;;;;;;9.02;94.82;94914.16;1265675;23;19909;-63
2021/05/17 01:59:40;;;;;;;;;;;;;;;9.02;94.81;94916.81;1267571;23;19916;-63
2021/05/17 02:00:11;;;;;;;;;;;;;;;9.04;95.15;94919.19;1266529;23;20346;-63
2021/05/17 02:00:42;;;;;;;;;;;;;;;9.06;95.02;94911.72;1266594;23;20307;-63
2021/05/17 02:01:14;;;;;;;;;;;;;;;9.04;94.56;94914.66;1272856;23;19909;-63
2021/05/17 02:01:44;;;;;;;;;;;;;;;9.05;94.61;94910.91;1272847;23;19905;-63
2021/05/17 02:02:14;;;;;;;;;;;;;;;9.09;94.38;94924.47;1272857;23;19920;-63
2021/05/17 02:02:44;;;;;;;;;;;;;;;9.07;94.35;94914.09;1272935;23;19904;-63
2021/05/17 02:03:15;;;;;;;;;;;;;;;9.08;94.42;94917.56;1272472;23;20285;-63
2021/05/17 02:03:46;;;;;;;;;;;;;;;9.11;94.00;94912.44;1272548;23;19959;-63
2021/05/17 02:04:16;;;;;;;;;;;;;;;9.10;94.25;94926.03;1272524;23;20039;-63
2021/05/17 02:04:46;;;;;;;;;;;;;;;9.12;94.23;94921.25;1272475;23;20346;-63
2021/05/17 02:05:16;;;;;;;;;;;;;;;9.13;94.31;94930.03;1272603;23;20002;-63
2021/05/17 02:05:47;;;;;;;;;;;;;;;9.07;93.83;94924.75;1272528;23;19905;-63
2021/05/17 02:06:17;;;;;;;;;;;;;;;9.01;93.46;94917.91;1274475;23;19988;-64
2021/05/17 02:06:48;;;;;;;;;;;;;;;8.99;94.63;94914.72;1275060;23;19901;-64
2021/05/17 02:07:18;;;;;;;;;;;;;;;9.01;93.63;94917.13;1273972;23;20329;-64
2021/05/17 02:07:48;;;;;;;;;;;;;;;9.02;93.79;94922.16;1275229;23;19905;-64
2021/05/17 02:08:19;;;;;;;;;;;;;;;9.04;93.60;94916.53;1273059;23;19909;-63
2021/05/17 02:08:50;;;;;;;;;;;;;;;9.05;94.58;94928.78;1266615;23;19913;-64
2021/05/17 02:09:20;;;;;;;;;;;;;;;9.01;94.14;94919.78;1266402;23;19916;-63
2021/05/17 02:09:52;;;;;;;;;;;;;;;9.00;93.95;94926.16;1260526;23;19933;-63
2021/05/17 02:10:22;;;;;;;;;;;;;;;9.02;93.89;94926.69;1261043;23;19988;-63
2021/05/17 02:10:53;;;;;;;;;;;;;;;9.01;94.00;94927.78;1266482;23;20295;-64
2021/05/17 02:11:23;;;;;;;;;;;;;;;9.01;94.17;94925.13;1266907;23;19940;-63
2021/05/17 02:11:54;;;;;;;;;;;;;;;9.03;94.08;94936.28;1272904;23;19904;-63
2021/05/17 02:12:24;;;;;;;;;;;;;;;9.06;93.80;94919.72;1272966;23;20377;-63
2021/05/17 02:12:55;;;;;;;;;;;;;;;9.04;93.85;94920.00;1272696;23;19905;-63
2021/05/17 02:13:26;;;;;;;;;;;;;;;9.02;93.71;94922.16;1272924;23;19904;-63
2021/05/17 02:13:56;;;;;;;;;;;;;;;9.03;93.85;94921.06;1272931;23;19991;-63
2021/05/17 02:14:26;;;;;;;;;;;;;;;9.07;93.63;94918.63;1272406;23;19908;-63
2021/05/17 02:14:57;;;;;;;;;;;;;;;9.09;93.46;94921.78;1266498;23;19901;-63
2021/05/17 02:15:27;;;;;;;;;;;;;;;9.11;93.49;94917.78;1266522;23;19984;-63
2021/05/17 02:15:57;;;;;;;;;;;;;;;9.11;93.77;94925.78;1266440;23;19901;-63
2021/05/17 02:16:28;;;;;;;;;;;;;;;9.13;93.80;94920.16;1266466;23;19901;-63
2021/05/17 02:16:58;;;;;;;;;;;;;;;9.11;93.54;94933.78;1272797;23;20031;-64
2021/05/17 02:17:28;;;;;;;;;;;;;;;9.10;93.64;94924.16;1272814;23;19901;-63
2021/05/17 02:18:05;;;;;;;;;;;;;;;9.14;93.85;94923.59;1266241;23;19956;-63
2021/05/17 02:18:36;;;;;;;;;;;;;;;9.13;93.07;94924.69;1266490;23;19911;-63
2021/05/17 02:19:07;;;;;;;;;;;;;;;9.08;93.20;94921.00;1266412;23;19901;-63
2021/05/17 02:19:37;;;;;;;;;;;;;;;9.09;92.99;94927.13;1261768;23;19901;-63
2021/05/17 02:20:07;;;;;;;;;;;;;;;9.07;93.02;94921.31;1266450;23;19901;-63
2021/05/17 02:20:38;;;;;;;;;;;;;;;9.02;92.94;94919.50;1260145;23;20267;-63
2021/05/17 02:21:08;;;;;;;;;;;;;;;9.02;93.05;94919.50;1260374;23;20403;-63
2021/05/17 02:21:39;;;;;;;;;;;;;;;9.03;92.92;94925.63;1266540;23;20277;-63
2021/05/17 02:22:09;;;;;;;;;;;;;;;9.01;93.01;94928.56;1266541;23;19901;-63
2021/05/17 02:22:39;;;;;;;;;;;;;;;8.99;93.00;94922.72;1272872;23;20342;-63
2021/05/17 02:23:10;;;;;;;;;;;;;;;8.98;93.20;94923.78;1272502;23;19900;-63
2021/05/17 02:23:41;;;;;;;;;;;;;;;8.98;93.17;94923.00;1272498;23;19952;-63
2021/05/17 02:24:11;;;;;;;;;;;;;;;8.95;92.99;94923.56;1272467;23;19979;-63
2021/05/17 02:24:41;;;;;;;;;;;;;;;8.95;93.19;94923.56;1272651;23;19967;-64
2021/05/17 02:25:12;;;;;;;;;;;;;;;8.95;93.24;94923.56;1272922;23;20493;-63
2021/05/17 02:25:43;;;;;;;;;;;;;;;8.95;93.50;94927.03;1272742;23;19983;-63
2021/05/17 02:26:13;;;;;;;;;;;;;;;8.97;93.20;94930.22;1272627;23;20222;-63
2021/05/17 02:26:43;;;;;;;;;;;;;;;9.00;93.50;94934.16;1272849;23;20321;-63
2021/05/17 02:27:14;;;;;;;;;;;;;;;9.00;93.46;94931.50;1272856;23;20319;-63
2021/05/17 02:27:44;;;;;;;;;;;;;;;9.00;93.42;94934.16;1266330;23;20341;-63
2021/05/17 02:28:15;;;;;;;;;;;;;;;9.00;93.37;94928.84;1266451;23;20357;-64
2021/05/17 02:28:45;;;;;;;;;;;;;;;9.00;93.32;94936.81;1266433;23;19975;-63
2021/05/17 02:29:15;;;;;;;;;;;;;;;8.97;93.35;94934.75;1266516;23;19952;-63
2021/05/17 02:29:46;;;;;;;;;;;;;;;8.99;93.46;94933.38;1272817;23;19901;-63
2021/05/17 02:30:16;;;;;;;;;;;;;;;9.00;93.38;94924.28;1272762;23;19984;-63
2021/05/17 02:30:47;;;;;;;;;;;;;;;9.05;93.35;94931.44;1272768;23;19900;-63
2021/05/17 02:31:17;;;;;;;;;;;;;;;8.99;93.39;94929.91;1272642;23;20278;-63
2021/05/17 02:31:47;;;;;;;;;;;;;;;8.98;93.27;94925.66;1272726;23;19915;-63
2021/05/17 02:32:18;;;;;;;;;;;;;;;9.00;93.13;94926.97;1272344;23;19901;-64
2021/05/17 02:32:48;;;;;;;;;;;;;;;9.05;92.83;94928.78;1272585;23;19905;-63
2021/05/17 02:33:19;;;;;;;;;;;;;;;9.00;92.96;94926.16;1272529;23;20060;-63
2021/05/17 02:33:49;;;;;;;;;;;;;;;9.01;93.15;94925.13;1272614;23;19900;-63
2021/05/17 02:34:19;;;;;;;;;;;;;;;9.03;93.18;94921.06;1272724;23;19900;-63
2021/05/17 02:34:50;;;;;;;;;;;;;;;9.03;93.11;94920.28;1272944;23;19905;-63
2021/05/17 02:35:20;;;;;;;;;;;;;;;9.05;92.69;94926.91;1272888;23;20306;-63
2021/05/17 02:35:51;;;;;;;;;;;;;;;9.02;92.44;94922.16;1272893;23;19908;-63
2021/05/17 02:36:21;;;;;;;;;;;;;;;9.06;92.71;94925.06;1272669;23;19896;-64
2021/05/17 02:36:52;;;;;;;;;;;;;;;9.03;92.91;94928.28;1272796;23;19900;-64
2021/05/17 02:37:22;;;;;;;;;;;;;;;8.98;92.38;94929.13;1272902;23;19911;-63
2021/05/17 02:37:52;;;;;;;;;;;;;;;8.99;92.50;94932.59;1272361;23;19900;-63
2021/05/17 02:38:22;;;;;;;;;;;;;;;9.00;92.47;94929.63;1272288;23;20246;-63
2021/05/17 02:38:53;;;;;;;;;;;;;;;8.97;92.31;94932.88;1272517;23;19901;-63
2021/05/17 02:39:23;;;;;;;;;;;;;;;9.03;92.18;94934.41;1272518;23;19900;-64
2021/05/17 02:39:53;;;;;;;;;;;;;;;9.00;92.04;94939.50;1272923;23;20350;-63
2021/05/17 02:40:24;;;;;;;;;;;;;;;9.00;91.96;94942.94;1272900;23;20274;-63
2021/05/17 02:40:54;;;;;;;;;;;;;;;9.03;91.80;94939.72;1272855;23;19979;-63
2021/05/17 02:41:24;;;;;;;;;;;;;;;9.02;92.00;94940.03;1272307;23;19897;-63
2021/05/17 02:41:55;;;;;;;;;;;;;;;9.04;92.06;94943.19;1266417;23;20299;-63
2021/05/17 02:42:26;;;;;;;;;;;;;;;9.06;92.32;94941.84;1266340;23;19953;-64
2021/05/17 02:43:00;;;;;;;;;;;;;;;9.10;92.31;94947.38;1266511;23;19957;-64
2021/05/17 02:43:31;;;;;;;;;;;;;;;9.03;91.88;94947.72;1267442;23;19992;-63